createdAt,value
2024-02-04T00:02:10.764Z,76.06
2024-02-04T00:04:37.723Z,75.95
2024-02-04T00:07:04.867Z,75.13
2024-02-04T00:09:34.515Z,78.13
2024-02-04T00:12:05.066Z,78.26
2024-02-04T00:14:32.011Z,77.93
2024-02-04T00:16:58.701Z,81.50
2024-02-04T00:19:25.783Z,80.95
2024-02-04T00:21:52.583Z,85.29
2024-02-04T00:24:22.817Z,85.14
2024-02-04T00:26:49.836Z,84.48
2024-02-04T00:29:16.552Z,86.21
2024-02-04T00:31:43.851Z,85.06
2024-02-04T00:34:10.819Z,85.61
2024-02-04T00:36:37.866Z,86.56
2024-02-04T00:39:05.008Z,85.94
2024-02-04T00:41:31.879Z,85.32
2024-02-04T00:43:58.580Z,84.35
2024-02-04T00:46:25.364Z,83.15
2024-02-04T00:48:52.426Z,82.64
2024-02-04T00:51:21.038Z,84.49
2024-02-04T00:53:47.974Z,84.07
2024-02-04T00:56:14.810Z,83.90
2024-02-04T00:58:41.777Z,84.27
2024-02-04T01:01:08.852Z,84.48
2024-02-04T01:03:35.862Z,84.30
2024-02-04T01:06:02.808Z,83.52
2024-02-04T01:08:29.627Z,83.41
2024-02-04T01:10:56.788Z,84.27
2024-02-04T01:13:23.544Z,83.27
2024-02-04T01:15:50.365Z,83.04
2024-02-04T01:18:17.136Z,82.18
2024-02-04T01:20:43.959Z,81.50
2024-02-04T01:23:10.636Z,80.83
2024-02-04T01:25:39.914Z,82.29
2024-02-04T01:28:08.531Z,81.71
2024-02-04T01:30:35.328Z,82.35
2024-02-04T01:33:02.208Z,83.44
2024-02-04T01:35:29.069Z,84.01
2024-02-04T01:37:55.987Z,84.52
2024-02-04T01:40:22.828Z,84.29
2024-02-04T01:42:49.731Z,82.92
2024-02-04T01:45:16.661Z,82.22
2024-02-04T01:47:43.974Z,82.64
2024-02-04T01:50:11.905Z,81.80
2024-02-04T01:52:41.487Z,80.43
2024-02-04T01:55:09.011Z,80.18
2024-02-04T01:57:38.678Z,80.13
2024-02-04T02:00:06.470Z,79.58
2024-02-04T02:02:35.488Z,78.53
2024-02-04T02:05:02.617Z,78.67
2024-02-04T02:07:29.639Z,77.81
2024-02-04T02:09:56.678Z,79.50
2024-02-04T02:12:27.190Z,79.79
2024-02-04T02:15:02.334Z,78.55
2024-02-04T02:18:01.402Z,79.00
2024-02-04T02:20:55.160Z,80.09
2024-02-04T02:23:31.660Z,79.99
2024-02-04T02:26:00.396Z,79.97
2024-02-04T02:28:27.184Z,79.18
2024-02-04T02:30:53.974Z,78.66
2024-02-04T02:33:21.054Z,78.38
2024-02-04T02:35:54.782Z,77.96
2024-02-04T02:38:45.114Z,77.84
2024-02-04T02:41:14.395Z,78.28
2024-02-04T02:43:42.471Z,78.18
2024-02-04T02:46:09.530Z,78.12
2024-02-04T02:48:36.868Z,77.86
2024-02-04T02:51:03.835Z,78.02
2024-02-04T02:53:32.844Z,78.05
2024-02-04T02:56:02.583Z,77.31
2024-02-04T02:58:29.314Z,76.65
2024-02-04T03:00:56.090Z,76.85
2024-02-04T03:03:23.014Z,75.79
2024-02-04T03:05:49.882Z,75.83
2024-02-04T03:08:17.964Z,76.27
2024-02-04T03:10:44.662Z,76.61
2024-02-04T03:13:15.101Z,75.69
2024-02-04T03:15:46.829Z,75.79
2024-02-04T03:18:13.738Z,75.38
2024-02-04T03:20:40.694Z,75.56
2024-02-04T03:23:07.538Z,76.07
2024-02-04T03:25:34.345Z,75.52
2024-02-04T03:28:01.492Z,75.26
2024-02-04T03:30:28.419Z,75.26
2024-02-04T03:32:55.428Z,75.76
2024-02-04T03:35:22.916Z,75.53
2024-02-04T03:37:49.863Z,75.08
2024-02-04T03:40:16.636Z,77.74
2024-02-04T03:42:43.506Z,76.91
2024-02-04T03:45:10.436Z,77.55
2024-02-04T03:47:37.334Z,77.01
2024-02-04T03:50:05.080Z,79.09
2024-02-04T03:52:32.101Z,78.55
2024-02-04T03:55:00.751Z,78.76
2024-02-04T03:57:29.621Z,79.71
2024-02-04T03:59:56.338Z,79.08
2024-02-04T04:02:23.059Z,81.07
2024-02-04T04:04:50.070Z,82.10
2024-02-04T04:07:17.370Z,82.09
2024-02-04T04:09:44.248Z,81.25
2024-02-04T04:12:10.985Z,80.27
2024-02-04T04:14:37.852Z,80.11
2024-02-04T04:17:04.908Z,79.66
2024-02-04T04:19:34.286Z,79.53
2024-02-04T04:22:02.551Z,79.37
2024-02-04T04:24:29.320Z,78.93
2024-02-04T04:26:56.055Z,77.85
2024-02-04T04:29:22.846Z,78.17
2024-02-04T04:31:49.658Z,78.22
2024-02-04T04:34:16.521Z,77.87
2024-02-04T04:36:43.584Z,77.02
2024-02-04T04:39:10.260Z,77.29
2024-02-04T04:41:37.027Z,77.53
2024-02-04T04:44:04.246Z,76.03
2024-02-04T04:46:30.923Z,76.53
2024-02-04T04:48:59.313Z,78.76
2024-02-04T04:51:26.436Z,77.26
2024-02-04T04:53:53.228Z,77.51
2024-02-04T04:56:20.028Z,76.95
2024-02-04T04:58:46.797Z,75.67
2024-02-04T05:01:13.678Z,77.01
2024-02-04T05:03:41.509Z,76.82
2024-02-04T05:06:08.406Z,76.96
2024-02-04T05:08:35.132Z,76.34
2024-02-04T05:11:02.036Z,77.43
2024-02-04T05:13:28.791Z,76.56
2024-02-04T05:15:55.726Z,76.90
2024-02-04T05:18:22.526Z,76.12
2024-02-04T05:20:49.712Z,75.58
2024-02-04T05:23:16.405Z,75.55
2024-02-04T05:25:43.157Z,76.24
2024-02-04T05:28:10.295Z,75.35
2024-02-04T05:30:37.225Z,75.06
2024-02-04T05:33:04.220Z,75.74
2024-02-04T05:35:31.041Z,76.08
2024-02-04T05:37:57.717Z,76.51
2024-02-04T05:40:24.504Z,76.72
2024-02-04T05:42:52.491Z,77.67
2024-02-04T05:45:19.294Z,77.08
2024-02-04T05:47:46.072Z,75.63
2024-02-04T05:50:14.121Z,79.37
2024-02-04T05:52:40.917Z,78.55
2024-02-04T05:55:07.917Z,78.42
2024-02-04T05:57:34.765Z,78.47
2024-02-04T06:00:01.626Z,79.78
2024-02-04T06:02:28.419Z,81.53
2024-02-04T06:04:55.978Z,82.25
2024-02-04T06:07:22.911Z,83.55
2024-02-04T06:09:49.730Z,84.32
2024-02-04T06:12:16.490Z,84.87
2024-02-04T06:14:43.192Z,84.73
2024-02-04T06:17:11.274Z,84.66
2024-02-04T06:19:38.330Z,83.82
2024-02-04T06:22:05.494Z,82.77
2024-02-04T06:24:32.516Z,83.77
2024-02-04T06:26:59.470Z,82.58
2024-02-04T06:29:26.384Z,82.88
2024-02-04T06:31:53.097Z,82.69
2024-02-04T06:34:19.957Z,83.52
2024-02-04T06:36:46.877Z,84.06
2024-02-04T06:39:14.502Z,83.63
2024-02-04T06:41:41.216Z,84.22
2024-02-04T06:44:07.916Z,83.40
2024-02-04T06:46:34.831Z,84.57
2024-02-04T06:49:02.482Z,86.18
2024-02-04T06:51:29.648Z,87.38
2024-02-04T06:53:56.466Z,88.50
2024-02-04T06:56:23.302Z,87.88
2024-02-04T06:58:50.207Z,88.44
2024-02-04T07:01:16.948Z,87.72
2024-02-04T07:03:43.868Z,88.00
2024-02-04T07:06:10.670Z,88.17
2024-02-04T07:08:37.465Z,88.51
2024-02-04T07:11:04.660Z,89.62
2024-02-04T07:13:31.452Z,88.53
2024-02-04T07:15:59.019Z,88.70
2024-02-04T07:18:26.294Z,90.10
2024-02-04T07:20:53.183Z,89.19
2024-02-04T07:23:19.931Z,87.64
2024-02-04T07:25:46.868Z,88.35
2024-02-04T07:28:13.838Z,87.47
2024-02-04T07:30:40.717Z,87.51
2024-02-04T07:33:07.614Z,87.35
2024-02-04T07:35:34.433Z,86.96
2024-02-04T07:38:01.195Z,86.37
2024-02-04T07:40:29.148Z,86.52
2024-02-04T07:42:56.508Z,85.24
2024-02-04T07:45:23.319Z,84.85
2024-02-04T07:47:50.159Z,84.73
2024-02-04T07:50:17.081Z,82.55
2024-02-04T07:52:45.219Z,84.11
2024-02-04T07:55:12.515Z,86.14
2024-02-04T07:57:39.513Z,84.30
2024-02-04T08:00:07.636Z,85.61
2024-02-04T08:02:39.515Z,85.92
2024-02-04T08:05:06.773Z,86.69
2024-02-04T08:07:33.794Z,86.35
2024-02-04T08:10:00.810Z,86.17
2024-02-04T08:12:27.593Z,87.75
2024-02-04T08:14:54.362Z,87.49
2024-02-04T08:17:21.117Z,87.74
2024-02-04T08:19:48.683Z,87.08
2024-02-04T08:22:15.695Z,85.44
2024-02-04T08:24:42.681Z,85.51
2024-02-04T08:27:09.671Z,85.65
2024-02-04T08:29:36.437Z,84.35
2024-02-04T08:32:03.697Z,84.21
2024-02-04T08:34:30.596Z,83.07
2024-02-04T08:36:57.313Z,83.12
2024-02-04T08:39:24.348Z,82.08
2024-02-04T08:41:51.052Z,83.29
2024-02-04T08:44:26.779Z,81.83
2024-02-04T08:47:02.739Z,81.71
2024-02-04T08:49:30.821Z,81.28
2024-02-04T08:51:57.738Z,81.37
2024-02-04T08:54:24.539Z,82.29
2024-02-04T08:56:51.441Z,82.36
2024-02-04T08:59:18.175Z,81.79
2024-02-04T09:01:45.152Z,82.82
2024-02-04T09:04:11.948Z,81.91
2024-02-04T09:06:38.862Z,77.17
2024-02-04T09:09:05.854Z,77.87
2024-02-04T09:11:32.592Z,77.54
2024-02-04T09:13:59.297Z,76.77
2024-02-04T09:16:26.208Z,77.03
2024-02-04T09:18:53.014Z,76.37
2024-02-04T09:21:20.083Z,75.75
2024-02-04T09:23:47.478Z,76.03
2024-02-04T09:26:18.969Z,75.52
2024-02-04T09:28:46.697Z,76.10
2024-02-04T09:31:13.714Z,77.38
2024-02-04T09:33:41.919Z,76.63
2024-02-04T09:36:09.228Z,75.83
2024-02-04T09:38:36.118Z,75.02
2024-02-04T09:41:06.784Z,74.37
2024-02-04T09:43:34.377Z,72.91
2024-02-04T09:46:02.048Z,72.51
2024-02-04T09:48:34.161Z,71.97
2024-02-04T09:51:01.390Z,71.89
2024-02-04T09:53:41.635Z,71.34
2024-02-04T09:56:10.205Z,71.08
2024-02-04T09:58:37.265Z,70.40
2024-02-04T10:01:05.832Z,70.59
2024-02-04T10:03:33.001Z,70.60
2024-02-04T10:05:59.961Z,69.56
2024-02-04T10:08:27.394Z,69.51
2024-02-04T10:10:55.948Z,69.17
2024-02-04T10:13:23.744Z,68.19
2024-02-04T10:15:52.763Z,66.40
2024-02-04T10:18:19.610Z,66.44
2024-02-04T10:20:46.383Z,66.77
2024-02-04T10:23:13.360Z,65.99
2024-02-04T10:25:40.434Z,65.89
2024-02-04T10:28:07.611Z,67.14
2024-02-04T10:30:35.334Z,68.67
2024-02-04T10:33:02.062Z,68.52
2024-02-04T10:35:28.809Z,69.49
2024-02-04T10:37:55.536Z,69.87
2024-02-04T10:40:22.517Z,69.86
2024-02-04T10:42:51.839Z,68.41
2024-02-04T10:45:19.398Z,69.19
2024-02-04T10:47:56.704Z,68.66
2024-02-04T10:50:26.591Z,69.04
2024-02-04T10:52:54.298Z,67.28
2024-02-04T10:55:28.989Z,65.69
2024-02-04T10:57:56.629Z,65.41
2024-02-04T11:00:23.966Z,64.70
2024-02-04T11:02:52.613Z,64.90
2024-02-04T11:05:20.548Z,64.06
2024-02-04T11:07:48.193Z,62.41
2024-02-04T11:10:15.942Z,62.17
2024-02-04T11:12:43.818Z,61.33
2024-02-04T11:15:13.133Z,58.84
2024-02-04T11:18:18.391Z,58.76
2024-02-04T11:20:55.468Z,59.12
2024-02-04T11:23:38.270Z,59.65
2024-02-04T11:26:06.096Z,58.79
2024-02-04T11:28:34.246Z,57.85
2024-02-04T11:31:01.531Z,56.95
2024-02-04T11:33:29.398Z,58.47
2024-02-04T11:36:13.406Z,57.81
2024-02-04T11:38:41.313Z,56.18
2024-02-04T11:41:09.393Z,56.46
2024-02-04T11:43:38.918Z,55.55
2024-02-04T11:46:06.864Z,54.66
2024-02-04T11:48:36.266Z,54.07
2024-02-04T11:51:05.697Z,52.71
2024-02-04T11:53:35.827Z,51.69
2024-02-04T11:56:04.388Z,51.91
2024-02-04T11:58:33.073Z,52.51
2024-02-04T12:01:00.272Z,49.20
2024-02-04T12:03:35.003Z,49.41
2024-02-04T12:06:03.646Z,48.20
2024-02-04T12:08:33.476Z,47.61
2024-02-04T12:11:01.489Z,48.14
2024-02-04T12:13:29.924Z,46.88
2024-02-04T12:15:56.956Z,48.26
2024-02-04T12:18:24.088Z,45.69
2024-02-04T12:20:51.817Z,47.03
2024-02-04T12:23:24.754Z,43.96
2024-02-04T12:25:51.873Z,43.27
2024-02-04T12:28:20.899Z,42.58
2024-02-04T12:30:59.918Z,42.90
2024-02-04T12:33:27.090Z,42.54
2024-02-04T12:35:57.117Z,42.72
2024-02-04T12:38:24.159Z,42.00
2024-02-04T12:40:51.807Z,42.84
2024-02-04T12:43:18.671Z,43.15
2024-02-04T12:45:45.613Z,43.87
2024-02-04T12:48:16.962Z,43.42
2024-02-04T12:50:43.733Z,41.99
2024-02-04T12:53:14.462Z,39.51
2024-02-04T12:55:41.533Z,42.82
2024-02-04T12:58:10.366Z,42.36
2024-02-04T13:00:38.534Z,42.34
2024-02-04T13:03:07.141Z,42.68
2024-02-04T13:05:34.528Z,42.09
2024-02-04T13:08:03.703Z,42.44
2024-02-04T13:10:32.591Z,43.04
2024-02-04T13:13:10.231Z,45.89
2024-02-04T13:15:42.563Z,46.73
2024-02-04T13:18:11.793Z,46.86
2024-02-04T13:20:39.598Z,47.32
2024-02-04T13:23:06.998Z,47.38
2024-02-04T13:25:34.614Z,44.06
2024-02-04T13:28:02.497Z,44.20
2024-02-04T13:30:29.465Z,44.23
2024-02-04T13:32:57.899Z,43.75
2024-02-04T13:35:25.422Z,43.45
2024-02-04T13:37:53.455Z,44.24
2024-02-04T13:40:21.566Z,45.74
2024-02-04T13:42:49.380Z,46.43
2024-02-04T13:45:16.485Z,46.00
2024-02-04T13:47:43.921Z,45.92
2024-02-04T13:50:12.273Z,45.24
2024-02-04T13:52:40.177Z,46.19
2024-02-04T13:55:10.794Z,45.32
2024-02-04T13:57:37.989Z,44.43
2024-02-04T14:00:07.237Z,44.07
2024-02-04T14:02:34.126Z,43.52
2024-02-04T14:05:01.639Z,44.19
2024-02-04T14:07:28.792Z,45.70
2024-02-04T14:09:56.114Z,44.68
2024-02-04T14:12:23.198Z,45.80
2024-02-04T14:14:49.987Z,44.51
2024-02-04T14:17:16.973Z,43.24
2024-02-04T14:19:46.495Z,41.20
2024-02-04T14:22:13.527Z,42.43
2024-02-04T14:24:40.380Z,42.28
2024-02-04T14:27:07.393Z,41.17
2024-02-04T14:29:34.267Z,40.81
2024-02-04T14:32:01.670Z,44.59
2024-02-04T14:34:29.534Z,46.67
2024-02-04T14:36:56.639Z,44.59
2024-02-04T14:39:23.524Z,43.47
2024-02-04T14:41:50.297Z,40.87
2024-02-04T14:44:16.943Z,39.43
2024-02-04T14:46:44.018Z,39.62
2024-02-04T14:49:10.964Z,41.00
2024-02-04T14:51:40.744Z,40.23
2024-02-04T14:54:10.690Z,41.95
2024-02-04T14:56:41.960Z,43.65
2024-02-04T14:59:21.334Z,44.49
2024-02-04T15:01:51.508Z,44.80
2024-02-04T15:04:19.756Z,44.78
2024-02-04T15:06:47.213Z,48.90
2024-02-04T15:09:15.870Z,49.83
2024-02-04T15:11:44.258Z,48.19
2024-02-04T15:14:11.312Z,49.18
2024-02-04T15:16:41.018Z,49.83
2024-02-04T15:19:09.031Z,49.65
2024-02-04T15:21:36.821Z,50.42
2024-02-04T15:24:07.435Z,51.76
2024-02-04T15:26:35.735Z,52.52
2024-02-04T15:29:06.021Z,54.43
2024-02-04T15:31:34.801Z,53.93
2024-02-04T15:34:03.809Z,53.38
2024-02-04T15:36:33.410Z,54.51
2024-02-04T15:39:00.187Z,53.26
2024-02-04T15:41:26.917Z,55.64
2024-02-04T15:43:53.701Z,53.92
2024-02-04T15:46:21.363Z,54.53
2024-02-04T15:48:53.128Z,57.60
2024-02-04T15:51:20.752Z,57.45
2024-02-04T15:53:47.793Z,57.16
2024-02-04T15:56:17.657Z,54.68
2024-02-04T15:58:44.606Z,54.99
2024-02-04T16:01:14.454Z,56.42
2024-02-04T16:03:42.695Z,57.82
2024-02-04T16:06:10.244Z,58.00
2024-02-04T16:08:39.320Z,59.74
2024-02-04T16:11:10.003Z,59.13
2024-02-04T16:13:39.356Z,60.19
2024-02-04T16:16:09.785Z,60.33
2024-02-04T16:18:36.952Z,60.37
2024-02-04T16:21:04.087Z,61.68
2024-02-04T16:23:30.993Z,61.13
2024-02-04T16:25:58.678Z,61.06
2024-02-04T16:28:25.690Z,61.47
2024-02-04T16:30:52.429Z,60.91
2024-02-04T16:33:19.330Z,61.47
2024-02-04T16:35:46.089Z,61.88
2024-02-04T16:38:13.124Z,62.06
2024-02-04T16:40:43.833Z,62.73
2024-02-04T16:43:10.712Z,62.36
2024-02-04T16:45:37.580Z,62.42
2024-02-04T16:48:04.790Z,63.02
2024-02-04T16:50:31.625Z,62.87
2024-02-04T16:52:58.566Z,62.82
2024-02-04T16:55:25.341Z,63.60
2024-02-04T16:57:52.157Z,63.49
2024-02-04T17:00:19.103Z,62.95
2024-02-04T17:02:46.086Z,62.79
2024-02-04T17:05:13.448Z,63.07
2024-02-04T17:07:42.344Z,62.99
2024-02-04T17:10:10.718Z,63.21
2024-02-04T17:12:37.864Z,62.65
2024-02-04T17:15:05.873Z,62.50
2024-02-04T17:17:34.534Z,62.81
2024-02-04T17:20:16.979Z,62.53
2024-02-04T17:22:45.650Z,62.78
2024-02-04T17:25:19.446Z,63.49
2024-02-04T17:27:48.140Z,63.13
2024-02-04T17:30:18.160Z,62.22
2024-02-04T17:32:46.455Z,63.36
2024-02-04T17:35:14.978Z,62.86
2024-02-04T17:37:42.185Z,63.65
2024-02-04T17:40:10.589Z,64.29
2024-02-04T17:42:37.872Z,64.65
2024-02-04T17:45:07.908Z,64.36
2024-02-04T17:47:36.118Z,63.42
2024-02-04T17:50:03.519Z,62.67
2024-02-04T17:52:30.460Z,62.62
2024-02-04T17:54:57.265Z,61.67
2024-02-04T17:57:24.397Z,63.00
2024-02-04T17:59:51.767Z,62.62
2024-02-04T18:02:27.813Z,63.22
2024-02-04T18:05:02.108Z,62.91
2024-02-04T18:07:29.057Z,62.98
2024-02-04T18:09:55.864Z,64.09
2024-02-04T18:12:22.789Z,64.57
2024-02-04T18:14:51.104Z,64.05
2024-02-04T18:17:17.943Z,63.65
2024-02-04T18:19:44.831Z,63.76
2024-02-04T18:22:11.673Z,64.37
2024-02-04T18:24:39.625Z,65.02
2024-02-04T18:27:06.910Z,64.68
2024-02-04T18:29:33.789Z,64.44
2024-02-04T18:32:00.533Z,64.83
2024-02-04T18:34:27.537Z,64.92
2024-02-04T18:36:54.562Z,65.46
2024-02-04T18:39:21.283Z,65.11
2024-02-04T18:41:48.094Z,64.74
2024-02-04T18:44:16.434Z,64.13
2024-02-04T18:46:43.934Z,64.34
2024-02-04T18:49:11.703Z,63.58
2024-02-04T18:51:44.127Z,63.90
2024-02-04T18:54:11.104Z,63.87
2024-02-04T18:56:45.829Z,64.32
2024-02-04T18:59:12.670Z,64.31
2024-02-04T19:01:40.578Z,64.65
2024-02-04T19:04:08.015Z,65.70
2024-02-04T19:06:35.913Z,64.94
2024-02-04T19:09:04.406Z,65.20
2024-02-04T19:11:32.935Z,65.25
2024-02-04T19:14:00.845Z,65.50
2024-02-04T19:16:27.547Z,65.22
2024-02-04T19:18:55.677Z,64.85
2024-02-04T19:21:23.061Z,65.79
2024-02-04T19:23:49.844Z,65.43
2024-02-04T19:26:18.257Z,65.65
2024-02-04T19:28:45.005Z,65.61
2024-02-04T19:31:12.348Z,65.39
2024-02-04T19:33:39.600Z,64.87
2024-02-04T19:36:07.110Z,64.17
2024-02-04T19:38:34.160Z,65.43
2024-02-04T19:41:01.156Z,65.45
2024-02-04T19:43:31.407Z,65.47
2024-02-04T19:45:59.697Z,65.33
2024-02-04T19:48:27.915Z,64.94
2024-02-04T19:50:55.095Z,64.64
2024-02-04T19:53:22.040Z,65.77
2024-02-04T19:55:49.449Z,65.98
2024-02-04T19:58:16.341Z,65.34
2024-02-04T20:00:43.566Z,65.09
2024-02-04T20:03:10.704Z,65.60
2024-02-04T20:05:37.720Z,65.69
2024-02-04T20:08:05.024Z,65.50
2024-02-04T20:10:32.957Z,65.72
2024-02-04T20:12:59.957Z,65.12
2024-02-04T20:15:29.676Z,65.03
2024-02-04T20:17:58.527Z,65.13
2024-02-04T20:20:28.088Z,65.27
2024-02-04T20:22:57.242Z,64.89
2024-02-04T20:25:29.229Z,65.30
2024-02-04T20:27:57.592Z,65.22
2024-02-04T20:30:30.220Z,65.34
2024-02-04T20:32:58.297Z,65.82
2024-02-04T20:35:28.986Z,65.96
2024-02-04T20:38:01.130Z,66.12
2024-02-04T20:40:29.352Z,66.13
2024-02-04T20:42:56.622Z,66.16
2024-02-04T20:45:23.580Z,66.03
2024-02-04T20:47:50.805Z,65.68
2024-02-04T20:50:18.287Z,66.64
2024-02-04T20:52:45.601Z,66.26
2024-02-04T20:55:12.733Z,67.03
2024-02-04T20:57:40.207Z,67.22
2024-02-04T21:00:08.629Z,67.24
2024-02-04T21:02:36.374Z,67.42
2024-02-04T21:05:03.839Z,67.02
2024-02-04T21:07:31.129Z,68.48
2024-02-04T21:09:58.246Z,68.12
2024-02-04T21:12:25.229Z,68.27
2024-02-04T21:14:52.381Z,67.54
2024-02-04T21:17:21.541Z,68.40
2024-02-04T21:19:50.558Z,68.24
2024-02-04T21:22:17.895Z,67.74
2024-02-04T21:24:45.530Z,67.70
2024-02-04T21:27:12.336Z,68.35
2024-02-04T21:29:39.265Z,67.90
2024-02-04T21:32:06.632Z,68.76
2024-02-04T21:34:34.019Z,68.53
2024-02-04T21:37:01.019Z,67.86
2024-02-04T21:39:27.889Z,67.24
2024-02-04T21:41:55.480Z,67.39
2024-02-04T21:44:22.400Z,67.36
2024-02-04T21:46:49.366Z,67.85
2024-02-04T21:49:16.639Z,67.92
2024-02-04T21:51:43.711Z,67.79
2024-02-04T21:54:10.467Z,67.61
2024-02-04T21:56:37.608Z,67.79
2024-02-04T21:59:04.557Z,67.79
2024-02-04T22:01:31.385Z,68.80
2024-02-04T22:03:59.594Z,68.42
2024-02-04T22:06:26.823Z,67.91
2024-02-04T22:08:53.582Z,68.49
2024-02-04T22:11:20.534Z,68.18
2024-02-04T22:13:47.652Z,68.07
2024-02-04T22:16:14.535Z,67.72
2024-02-04T22:18:41.544Z,67.71
2024-02-04T22:21:08.725Z,67.64
2024-02-04T22:23:36.092Z,67.37
2024-02-04T22:26:02.874Z,67.63
2024-02-04T22:28:29.612Z,68.37
2024-02-04T22:30:56.321Z,68.47
2024-02-04T22:33:23.122Z,68.99
2024-02-04T22:35:49.842Z,68.51
2024-02-04T22:38:16.616Z,68.55
2024-02-04T22:40:43.277Z,70.05
2024-02-04T22:43:10.451Z,73.16
2024-02-04T22:45:37.962Z,71.96
2024-02-04T22:48:06.794Z,71.25
2024-02-04T22:50:33.815Z,70.92
2024-02-04T22:53:00.775Z,71.19
2024-02-04T22:55:27.651Z,71.18
2024-02-04T22:57:54.561Z,70.95
2024-02-04T23:00:30.651Z,72.47
2024-02-04T23:02:59.961Z,72.12
2024-02-04T23:05:30.925Z,71.59
2024-02-04T23:07:59.760Z,71.03
2024-02-04T23:10:28.014Z,70.32
2024-02-04T23:12:56.668Z,71.76
2024-02-04T23:15:23.510Z,72.04
2024-02-04T23:17:53.644Z,72.60
2024-02-04T23:20:21.113Z,72.54
2024-02-04T23:22:48.330Z,72.63
2024-02-04T23:25:15.895Z,72.09
2024-02-04T23:27:42.914Z,71.56
2024-02-04T23:30:10.316Z,71.44
2024-02-04T23:32:37.217Z,71.62
2024-02-04T23:35:05.757Z,72.60
2024-02-04T23:37:34.951Z,71.73
2024-02-04T23:40:02.313Z,71.77
2024-02-04T23:42:29.071Z,72.21
2024-02-04T23:44:56.751Z,72.03
2024-02-04T23:47:23.725Z,71.63
2024-02-04T23:49:50.633Z,71.52
2024-02-04T23:52:17.681Z,71.49
2024-02-04T23:54:45.034Z,70.83
2024-02-04T23:57:11.720Z,70.72
2024-02-04T23:59:38.717Z,70.08
